createdAt,value
2018-01-10T00:01:08.184Z,90.90
2018-01-10T00:03:36.350Z,91.00
2018-01-10T00:06:04.464Z,91.40
2018-01-10T00:08:32.634Z,91.50
2018-01-10T00:11:00.761Z,91.60
2018-01-10T00:13:28.948Z,91.50
2018-01-10T00:15:57.078Z,91.50
2018-01-10T00:18:25.224Z,91.60
2018-01-10T00:20:53.376Z,91.60
2018-01-10T00:23:21.528Z,91.40
2018-01-10T00:25:49.671Z,91.40
2018-01-10T00:28:17.817Z,91.30
2018-01-10T00:30:45.942Z,91.30
2018-01-10T00:33:14.854Z,90.90
2018-01-10T00:35:42.984Z,90.90
2018-01-10T00:38:11.135Z,90.90
2018-01-10T00:40:39.266Z,91.20
2018-01-10T00:43:07.422Z,91.40
2018-01-10T00:45:36.302Z,91.10
2018-01-10T00:48:05.424Z,90.90
2018-01-10T00:50:33.551Z,90.90
2018-01-10T00:53:02.050Z,91.20
2018-01-10T00:55:30.339Z,91.40
2018-01-10T00:57:59.256Z,91.50
2018-01-10T01:00:28.188Z,91.50
2018-01-10T01:02:56.354Z,91.70
2018-01-10T01:05:24.489Z,91.80
2018-01-10T01:07:52.642Z,91.90
2018-01-10T01:10:21.538Z,91.90
2018-01-10T01:12:50.446Z,91.70
2018-01-10T01:15:18.579Z,91.70
2018-01-10T01:17:46.738Z,91.60
2018-01-10T01:20:14.872Z,91.60
2018-01-10T01:22:43.025Z,91.50
2018-01-10T01:25:11.919Z,91.30
2018-01-10T01:27:40.106Z,91.30
2018-01-10T01:30:08.237Z,91.00
2018-01-10T01:32:36.390Z,91.00
2018-01-10T01:35:04.643Z,90.90
2018-01-10T01:37:32.799Z,90.80
2018-01-10T01:40:00.978Z,90.60
2018-01-10T01:42:29.297Z,90.70
2018-01-10T01:44:57.418Z,90.70
2018-01-10T01:47:25.574Z,90.80
2018-01-10T01:49:54.451Z,90.50
2018-01-10T01:52:22.600Z,90.50
2018-01-10T01:54:50.728Z,90.30
2018-01-10T01:57:18.869Z,90.30
2018-01-10T01:59:47.008Z,90.70
2018-01-10T02:02:15.122Z,91.20
2018-01-10T02:04:44.031Z,90.90
2018-01-10T02:07:12.912Z,90.90
2018-01-10T02:09:41.823Z,91.20
2018-01-10T02:12:09.929Z,91.20
2018-01-10T02:14:38.086Z,91.30
2018-01-10T02:17:06.198Z,91.60
2018-01-10T02:19:34.343Z,91.70
2018-01-10T02:22:02.861Z,91.70
2018-01-10T02:24:31.067Z,91.10
2018-01-10T02:26:59.178Z,90.90
2018-01-10T02:29:27.314Z,91.10
2018-01-10T02:31:55.432Z,90.70
2018-01-10T02:34:23.570Z,90.70
2018-01-10T02:36:51.692Z,90.90
2018-01-10T02:39:19.981Z,90.80
2018-01-10T02:41:48.111Z,90.80
2018-01-10T02:44:16.253Z,90.50
2018-01-10T02:46:44.371Z,90.70
2018-01-10T02:49:12.508Z,91.00
2018-01-10T02:51:40.636Z,91.00
2018-01-10T02:54:08.755Z,90.80
2018-01-10T02:56:36.929Z,90.60
2018-01-10T02:59:05.043Z,90.40
2018-01-10T03:01:33.166Z,90.00
2018-01-10T03:04:01.304Z,90.10
2018-01-10T03:06:29.407Z,90.20
2018-01-10T03:08:57.665Z,90.40
2018-01-10T03:11:26.549Z,90.60
2018-01-10T03:13:54.683Z,90.60
2018-01-10T03:16:22.827Z,90.60
2018-01-10T03:18:50.968Z,90.50
2018-01-10T03:21:19.102Z,90.80
2018-01-10T03:23:47.248Z,90.90
2018-01-10T03:26:15.363Z,90.60
2018-01-10T03:28:43.495Z,90.40
2018-01-10T03:31:11.612Z,90.60
2018-01-10T03:33:39.752Z,90.40
2018-01-10T03:36:07.868Z,90.50
2018-01-10T03:38:36.003Z,90.40
2018-01-10T03:41:04.123Z,90.30
2018-01-10T03:43:32.262Z,90.50
2018-01-10T03:46:00.384Z,90.60
2018-01-10T03:48:29.280Z,90.70
2018-01-10T03:50:58.160Z,90.40
2018-01-10T03:53:27.063Z,90.20
2018-01-10T03:55:55.968Z,90.20
2018-01-10T03:58:24.107Z,90.20
2018-01-10T04:00:52.219Z,90.00
2018-01-10T04:03:20.350Z,90.30
2018-01-10T04:05:48.467Z,90.10
2018-01-10T04:08:16.604Z,90.30
2018-01-10T04:10:45.504Z,90.10
2018-01-10T04:13:14.413Z,90.20
2018-01-10T04:15:42.523Z,90.20
2018-01-10T04:18:10.664Z,90.00
2018-01-10T04:20:38.803Z,90.10
2018-01-10T04:23:06.927Z,90.00
2018-01-10T04:25:35.076Z,90.00
2018-01-10T04:28:03.187Z,90.30
2018-01-10T04:30:31.323Z,90.40
2018-01-10T04:32:59.435Z,90.20
2018-01-10T04:35:27.576Z,89.50
2018-01-10T04:37:55.696Z,89.90
2018-01-10T04:40:23.822Z,90.30
2018-01-10T04:42:52.034Z,90.10
2018-01-10T04:45:20.168Z,90.00
2018-01-10T04:47:48.303Z,90.20
2018-01-10T04:50:16.460Z,90.30
2018-01-10T04:52:44.583Z,90.00
2018-01-10T04:55:12.719Z,90.00
2018-01-10T04:57:40.831Z,90.00
2018-01-10T05:00:08.972Z,90.50
2018-01-10T05:02:38.897Z,90.70
2018-01-10T05:05:07.808Z,90.10
2018-01-10T05:07:35.949Z,90.40
2018-01-10T05:10:04.148Z,90.10
2018-01-10T05:12:33.019Z,90.10
2018-01-10T05:15:01.214Z,90.10
2018-01-10T05:17:29.336Z,90.10
2018-01-10T05:19:58.238Z,90.10
2018-01-10T05:22:26.350Z,90.10
2018-01-10T05:24:55.254Z,90.30
2018-01-10T05:27:23.364Z,90.30
2018-01-10T05:29:51.538Z,90.40
2018-01-10T05:32:19.648Z,90.60
2018-01-10T05:34:48.545Z,90.30
2018-01-10T05:37:17.436Z,90.60
2018-01-10T05:39:46.329Z,91.00
2018-01-10T05:42:15.219Z,90.70
2018-01-10T05:44:44.110Z,90.80
2018-01-10T05:47:12.999Z,90.80
2018-01-10T05:49:41.907Z,90.70
2018-01-10T05:52:10.024Z,90.70
2018-01-10T05:54:38.158Z,90.70
2018-01-10T05:57:06.305Z,90.70
2018-01-10T05:59:35.225Z,90.70
2018-01-10T06:02:03.340Z,90.70
2018-01-10T06:04:31.856Z,90.60
2018-01-10T06:07:00.867Z,90.70
2018-01-10T06:09:29.208Z,90.70
2018-01-10T06:11:57.340Z,90.50
2018-01-10T06:14:26.249Z,90.70
2018-01-10T06:16:55.372Z,91.00
2018-01-10T06:19:23.515Z,91.00
2018-01-10T06:21:51.655Z,90.90
2018-01-10T06:24:19.786Z,90.90
2018-01-10T06:26:49.410Z,90.90
2018-01-10T06:29:17.547Z,90.90
2018-01-10T06:31:45.661Z,90.50
2018-01-10T06:34:14.556Z,90.50
2018-01-10T06:36:43.436Z,90.50
2018-01-10T06:39:11.568Z,90.50
2018-01-10T06:41:39.684Z,90.60
2018-01-10T06:44:08.620Z,90.60
2018-01-10T06:46:36.742Z,90.20
2018-01-10T06:49:04.872Z,89.20
2018-01-10T06:51:32.999Z,89.80
2018-01-10T06:54:02.498Z,90.20
2018-01-10T06:56:30.636Z,90.20
2018-01-10T06:58:58.769Z,90.70
2018-01-10T07:01:26.923Z,90.70
2018-01-10T07:03:55.804Z,91.20
2018-01-10T07:06:23.946Z,91.20
2018-01-10T07:08:52.063Z,91.00
2018-01-10T07:11:20.968Z,91.20
2018-01-10T07:13:49.079Z,91.20
2018-01-10T07:16:17.211Z,90.90
2018-01-10T07:18:45.349Z,91.00
2018-01-10T07:21:13.515Z,91.20
2018-01-10T07:23:41.632Z,91.00
2018-01-10T07:26:09.768Z,91.20
2018-01-10T07:28:37.878Z,91.50
2018-01-10T07:31:06.067Z,91.30
2018-01-10T07:33:34.179Z,91.20
2018-01-10T07:36:02.314Z,91.00
2018-01-10T07:38:30.421Z,91.10
2018-01-10T07:40:58.557Z,91.10
2018-01-10T07:43:26.661Z,90.80
2018-01-10T07:45:54.807Z,90.60
2018-01-10T07:48:23.687Z,89.40
2018-01-10T07:50:51.823Z,89.40
2018-01-10T07:53:19.937Z,89.30
2018-01-10T07:55:48.063Z,90.00
2018-01-10T07:58:16.190Z,90.00
2018-01-10T08:00:44.327Z,90.00
2018-01-10T08:03:12.427Z,89.80
2018-01-10T08:05:40.570Z,90.10
2018-01-10T08:08:08.675Z,90.20
2018-01-10T08:10:36.821Z,90.20
2018-01-10T08:13:06.065Z,90.00
2018-01-10T08:15:35.029Z,90.00
2018-01-10T08:18:03.142Z,90.00
2018-01-10T08:20:31.282Z,89.30
2018-01-10T08:22:59.389Z,89.70
2018-01-10T08:25:28.287Z,90.20
2018-01-10T08:27:56.413Z,90.20
2018-01-10T08:30:24.547Z,90.20
2018-01-10T08:32:52.663Z,89.60
2018-01-10T08:35:20.800Z,89.50
2018-01-10T08:37:48.919Z,88.80
2018-01-10T08:40:17.064Z,89.20
2018-01-10T08:42:45.952Z,90.10
2018-01-10T08:45:14.864Z,90.00
2018-01-10T08:47:42.991Z,90.00
2018-01-10T08:50:11.114Z,89.50
2018-01-10T08:52:39.231Z,89.40
2018-01-10T08:55:07.375Z,89.10
2018-01-10T08:57:35.479Z,89.00
2018-01-10T09:00:03.610Z,89.10
2018-01-10T09:02:37.459Z,89.20
2018-01-10T09:05:05.600Z,89.20
2018-01-10T09:07:33.711Z,89.00
2018-01-10T09:10:01.988Z,89.40
2018-01-10T09:12:30.251Z,89.30
2018-01-10T09:14:58.384Z,89.20
2018-01-10T09:17:26.507Z,87.80
2018-01-10T09:19:54.642Z,87.00
2018-01-10T09:22:23.531Z,87.00
2018-01-10T09:24:51.667Z,87.00
2018-01-10T09:27:20.552Z,87.10
2018-01-10T09:29:48.683Z,87.00
2018-01-10T09:32:16.793Z,86.50
2018-01-10T09:34:44.907Z,87.00
2018-01-10T09:37:13.035Z,87.00
2018-01-10T09:39:41.152Z,87.50
2018-01-10T09:42:09.339Z,88.40
2018-01-10T09:44:37.456Z,87.90
2018-01-10T09:47:05.595Z,87.30
2018-01-10T09:49:33.711Z,86.60
2018-01-10T09:52:03.146Z,86.40
2018-01-10T09:54:31.261Z,86.40
2018-01-10T09:56:59.417Z,86.90
2018-01-10T09:59:27.535Z,87.40
2018-01-10T10:01:55.664Z,87.00
2018-01-10T10:04:23.781Z,86.60
2018-01-10T10:06:52.691Z,87.00
2018-01-10T10:09:20.812Z,86.80
2018-01-10T10:11:48.946Z,86.60
2018-01-10T10:14:17.060Z,84.70
2018-01-10T10:16:45.207Z,84.20
2018-01-10T10:19:13.332Z,83.70
2018-01-10T10:21:41.475Z,83.70
2018-01-10T10:24:09.584Z,84.40
2018-01-10T10:26:37.820Z,84.40
2018-01-10T10:29:05.930Z,84.00
2018-01-10T10:31:34.853Z,83.80
2018-01-10T10:34:03.391Z,83.80
2018-01-10T10:36:32.353Z,84.10
2018-01-10T10:39:00.460Z,84.10
2018-01-10T10:41:28.719Z,83.60
2018-01-10T10:43:56.839Z,83.80
2018-01-10T10:46:24.987Z,82.60
2018-01-10T10:48:53.100Z,82.00
2018-01-10T10:51:21.243Z,81.80
2018-01-10T10:53:50.128Z,80.90
2018-01-10T10:56:19.037Z,81.20
2018-01-10T10:58:47.168Z,80.80
2018-01-10T11:01:15.296Z,81.90
2018-01-10T11:03:43.407Z,81.70
2018-01-10T11:06:13.047Z,80.70
2018-01-10T11:08:41.919Z,81.00
2018-01-10T11:11:10.059Z,81.00
2018-01-10T11:13:38.180Z,80.50
2018-01-10T11:16:07.092Z,81.20
2018-01-10T11:18:35.210Z,81.10
2018-01-10T11:21:03.667Z,81.60
2018-01-10T11:23:31.814Z,82.20
2018-01-10T11:25:59.952Z,82.60
2018-01-10T11:28:28.143Z,83.60
2018-01-10T11:30:57.056Z,84.40
2018-01-10T11:33:25.191Z,84.40
2018-01-10T11:35:53.334Z,84.50
2018-01-10T11:38:21.443Z,83.50
2018-01-10T11:40:49.582Z,83.10
2018-01-10T11:43:17.700Z,83.00
2018-01-10T11:45:45.828Z,82.90
2018-01-10T11:48:13.951Z,83.40
2018-01-10T11:50:42.863Z,83.10
2018-01-10T11:53:10.970Z,83.00
2018-01-10T11:55:39.088Z,82.80
2018-01-10T11:58:07.992Z,82.10
2018-01-10T12:00:36.111Z,82.00
2018-01-10T12:03:04.235Z,82.30
2018-01-10T12:05:33.107Z,83.00
2018-01-10T12:08:02.574Z,84.10
2018-01-10T12:10:30.684Z,83.50
2018-01-10T12:12:58.819Z,83.00
2018-01-10T12:15:26.932Z,83.00
2018-01-10T12:17:55.834Z,83.90
2018-01-10T12:20:24.706Z,83.80
2018-01-10T12:22:53.623Z,83.70
2018-01-10T12:25:21.746Z,84.50
2018-01-10T12:27:49.880Z,84.40
2018-01-10T12:30:18.002Z,85.40
2018-01-10T12:32:46.146Z,85.00
2018-01-10T12:35:14.261Z,83.60
2018-01-10T12:37:43.842Z,83.10
2018-01-10T12:40:11.956Z,83.80
2018-01-10T12:42:40.860Z,83.10
2018-01-10T12:45:08.974Z,83.10
2018-01-10T12:47:37.106Z,83.10
2018-01-10T12:50:05.215Z,82.90
2018-01-10T12:52:33.347Z,83.30
2018-01-10T12:55:01.601Z,83.70
2018-01-10T12:57:29.814Z,83.90
2018-01-10T12:59:57.927Z,83.90
2018-01-10T13:02:26.065Z,83.80
2018-01-10T13:04:54.172Z,83.90
2018-01-10T13:07:22.314Z,83.60
2018-01-10T13:09:50.427Z,83.50
2018-01-10T13:12:18.574Z,83.50
2018-01-10T13:14:46.695Z,84.10
2018-01-10T13:17:15.604Z,85.20
2018-01-10T13:19:43.715Z,85.10
2018-01-10T13:22:11.863Z,86.30
2018-01-10T13:24:39.982Z,85.90
2018-01-10T13:27:08.107Z,85.60
2018-01-10T13:29:36.223Z,85.20
2018-01-10T13:32:04.484Z,84.90
2018-01-10T13:34:32.588Z,83.50
2018-01-10T13:37:00.728Z,82.70
2018-01-10T13:39:29.628Z,82.80
2018-01-10T13:41:57.760Z,82.80
2018-01-10T13:44:25.871Z,82.80
2018-01-10T13:46:54.012Z,82.60
2018-01-10T13:49:22.136Z,82.40
2018-01-10T13:51:50.286Z,82.60
2018-01-10T13:54:18.392Z,82.80
2018-01-10T13:56:46.551Z,82.50
2018-01-10T13:59:14.668Z,82.80
2018-01-10T14:01:42.805Z,83.00
2018-01-10T14:04:10.912Z,84.20
2018-01-10T14:06:39.055Z,84.60
2018-01-10T14:09:07.170Z,85.10
2018-01-10T14:11:35.312Z,85.80
2018-01-10T14:14:04.182Z,85.80
2018-01-10T14:16:32.314Z,85.80
2018-01-10T14:19:00.419Z,86.10
2018-01-10T14:21:28.536Z,86.90
2018-01-10T14:23:56.887Z,87.40
2018-01-10T14:26:24.999Z,86.20
2018-01-10T14:28:53.144Z,86.50
2018-01-10T14:31:22.019Z,88.00
2018-01-10T14:33:50.171Z,88.00
2018-01-10T14:36:18.279Z,88.30
2018-01-10T14:38:46.414Z,88.70
2018-01-10T14:41:14.530Z,88.60
2018-01-10T14:43:43.436Z,88.90
2018-01-10T14:46:11.543Z,88.10
2018-01-10T14:48:39.667Z,87.40
2018-01-10T14:51:08.539Z,87.70
2018-01-10T14:53:36.676Z,87.70
2018-01-10T14:56:05.567Z,88.30
2018-01-10T14:58:33.738Z,88.30
2018-01-10T15:01:01.835Z,88.40
2018-01-10T15:03:29.980Z,87.60
2018-01-10T15:05:58.076Z,87.10
2018-01-10T15:08:26.210Z,87.70
2018-01-10T15:10:54.322Z,87.60
2018-01-10T15:13:22.456Z,88.10
2018-01-10T15:15:50.562Z,88.00
2018-01-10T15:18:18.686Z,87.80
2018-01-10T15:20:47.565Z,88.20
2018-01-10T15:23:15.703Z,88.10
2018-01-10T15:25:43.819Z,88.20
2018-01-10T15:28:12.731Z,89.20
2018-01-10T15:30:40.847Z,89.20
2018-01-10T15:33:08.973Z,89.10
2018-01-10T15:35:37.079Z,89.10
2018-01-10T15:38:05.292Z,88.50
2018-01-10T15:40:33.399Z,87.90
2018-01-10T15:43:01.816Z,88.70
2018-01-10T15:45:30.063Z,87.40
2018-01-10T15:47:58.200Z,88.30
2018-01-10T15:50:26.307Z,87.40
2018-01-10T15:52:54.441Z,88.20
2018-01-10T15:55:22.566Z,88.90
2018-01-10T15:57:50.698Z,89.60
2018-01-10T16:00:19.568Z,89.40
2018-01-10T16:02:47.704Z,89.40
2018-01-10T16:05:15.813Z,89.30
2018-01-10T16:07:43.965Z,88.50
2018-01-10T16:10:12.109Z,88.30
2018-01-10T16:12:40.247Z,88.00
2018-01-10T16:15:08.360Z,88.70
2018-01-10T16:17:36.522Z,89.30
2018-01-10T16:20:04.627Z,88.40
2018-01-10T16:22:33.737Z,88.30
2018-01-10T16:25:01.897Z,88.40
2018-01-10T16:27:30.165Z,87.70
2018-01-10T16:29:58.283Z,88.00
2018-01-10T16:32:26.428Z,88.10
2018-01-10T16:34:54.549Z,87.60
2018-01-10T16:37:22.680Z,88.00
2018-01-10T16:39:50.818Z,89.20
2018-01-10T16:42:18.964Z,88.40
2018-01-10T16:44:47.899Z,88.70
2018-01-10T16:47:16.212Z,88.70
2018-01-10T16:49:44.398Z,89.10
2018-01-10T16:52:13.408Z,88.70
2018-01-10T16:54:41.582Z,88.70
2018-01-10T16:57:09.718Z,86.70
2018-01-10T16:59:37.859Z,87.10
2018-01-10T17:02:05.983Z,87.40
2018-01-10T17:04:34.884Z,88.90
2018-01-10T17:07:03.012Z,88.80
2018-01-10T17:09:31.159Z,88.60
2018-01-10T17:12:00.672Z,89.00
2018-01-10T17:14:28.809Z,89.30
2018-01-10T17:16:57.692Z,89.30
2018-01-10T17:19:26.612Z,88.60
2018-01-10T17:21:54.723Z,88.60
2018-01-10T17:24:22.874Z,88.10
2018-01-10T17:26:50.979Z,87.10
2018-01-10T17:32:21.002Z,87.60
2018-01-10T17:34:49.145Z,87.50
2018-01-10T17:37:18.035Z,87.60
2018-01-10T17:39:46.161Z,87.30
2018-01-10T17:42:14.270Z,87.20
2018-01-10T17:44:42.417Z,87.70
2018-01-10T17:47:10.547Z,87.90
2018-01-10T17:49:39.450Z,89.10
2018-01-10T17:52:08.334Z,88.60
2018-01-10T17:54:37.219Z,88.60
2018-01-10T17:57:06.098Z,88.20
2018-01-10T17:59:34.235Z,88.20
2018-01-10T18:02:02.350Z,88.00
2018-01-10T18:04:31.249Z,88.80
2018-01-10T18:07:00.127Z,87.90
2018-01-10T18:09:28.274Z,87.90
2018-01-10T18:11:57.398Z,89.10
2018-01-10T18:14:25.535Z,89.10
2018-01-10T18:16:53.657Z,89.10
2018-01-10T18:19:22.574Z,89.50
2018-01-10T18:21:50.683Z,89.50
2018-01-10T18:24:18.819Z,89.50
2018-01-10T18:26:46.916Z,89.30
2018-01-10T18:29:15.046Z,89.00
2018-01-10T18:31:43.911Z,88.00
2018-01-10T18:34:12.042Z,88.10
2018-01-10T18:36:40.174Z,89.10
2018-01-10T18:39:09.082Z,90.50
2018-01-10T18:41:37.186Z,90.40
2018-01-10T18:44:05.314Z,90.30
2018-01-10T18:46:34.185Z,90.60
2018-01-10T18:49:02.768Z,90.60
2018-01-10T18:51:30.879Z,90.70
2018-01-10T18:53:59.020Z,90.60
2018-01-10T18:56:27.127Z,90.40
2018-01-10T18:58:55.250Z,89.40
2018-01-10T19:01:23.369Z,89.20
2018-01-10T19:03:51.506Z,88.90
2018-01-10T19:06:19.615Z,89.90
2018-01-10T19:08:47.786Z,90.00
2018-01-10T19:11:15.890Z,90.00
2018-01-10T19:13:44.041Z,90.00
2018-01-10T19:16:12.158Z,90.10
2018-01-10T19:18:40.290Z,89.10
2018-01-10T19:21:08.539Z,89.00
2018-01-10T19:23:36.659Z,89.00
2018-01-10T19:26:04.911Z,89.90
2018-01-10T19:28:33.034Z,88.50
2018-01-10T19:31:01.148Z,89.20
2018-01-10T19:33:30.050Z,87.30
2018-01-10T19:35:59.343Z,87.30
2018-01-10T19:38:27.500Z,87.20
2018-01-10T19:40:55.613Z,87.40
2018-01-10T19:43:23.745Z,87.80
2018-01-10T19:45:51.875Z,87.20
2018-01-10T19:48:20.001Z,88.50
2018-01-10T19:50:48.877Z,88.90
2018-01-10T19:53:17.008Z,88.90
2018-01-10T19:55:45.117Z,88.90
2018-01-10T19:58:13.232Z,89.20
2018-01-10T20:00:41.742Z,89.50
2018-01-10T20:03:10.314Z,90.30
2018-01-10T20:05:38.488Z,90.40
2018-01-10T20:08:06.602Z,90.60
2018-01-10T20:10:34.740Z,90.60
2018-01-10T20:13:03.242Z,90.30
2018-01-10T20:15:31.380Z,90.20
2018-01-10T20:17:59.518Z,89.40
2018-01-10T20:20:27.678Z,90.10
2018-01-10T20:22:55.803Z,88.70
2018-01-10T20:25:23.964Z,87.30
2018-01-10T20:27:52.093Z,88.00
2018-01-10T20:30:20.237Z,88.50
2018-01-10T20:32:48.364Z,89.20
2018-01-10T20:35:17.264Z,90.00
2018-01-10T20:37:46.139Z,90.00
2018-01-10T20:40:14.320Z,89.90
2018-01-10T20:42:43.928Z,88.70
2018-01-10T20:45:12.184Z,88.70
2018-01-10T20:47:40.297Z,88.50
2018-01-10T20:50:08.443Z,89.40
2018-01-10T20:52:36.586Z,89.40
2018-01-10T20:55:04.726Z,88.40
2018-01-10T20:57:32.847Z,89.30
2018-01-10T21:00:00.993Z,90.00
2018-01-10T21:02:29.096Z,88.80
2018-01-10T21:04:57.243Z,89.00
2018-01-10T21:07:25.470Z,88.30
2018-01-10T21:09:53.713Z,87.40
2018-01-10T21:12:21.822Z,88.00
2018-01-10T21:14:50.724Z,88.50
2018-01-10T21:17:20.203Z,88.00
2018-01-10T21:19:49.097Z,88.50
2018-01-10T21:22:17.984Z,89.10
2018-01-10T21:24:46.118Z,89.00
2018-01-10T21:27:14.236Z,89.30
2018-01-10T21:29:43.200Z,90.00
2018-01-10T21:32:11.335Z,90.00
2018-01-10T21:34:39.495Z,90.00
2018-01-10T21:37:07.612Z,89.50
2018-01-10T21:39:35.740Z,89.70
2018-01-10T21:42:04.962Z,89.80
2018-01-10T21:44:33.895Z,88.40
2018-01-10T21:47:02.215Z,88.00
2018-01-10T21:49:30.487Z,88.70
2018-01-10T21:51:59.355Z,90.10
2018-01-10T21:54:27.522Z,90.10
2018-01-10T21:56:55.644Z,90.20
2018-01-10T21:59:24.562Z,88.00
2018-01-10T22:01:52.658Z,88.00
2018-01-10T22:04:20.786Z,87.30
2018-01-10T22:06:48.920Z,88.30
2018-01-10T22:09:17.091Z,87.80
2018-01-10T22:11:45.967Z,89.40
2018-01-10T22:14:14.100Z,88.70
2018-01-10T22:16:42.198Z,89.60
2018-01-10T22:19:10.330Z,90.00
2018-01-10T22:21:38.437Z,90.00
2018-01-10T22:24:06.598Z,89.60
2018-01-10T22:26:34.720Z,88.80
2018-01-10T22:29:03.007Z,89.20
2018-01-10T22:31:31.231Z,88.20
2018-01-10T22:33:59.353Z,88.80
2018-01-10T22:36:28.250Z,90.20
2018-01-10T22:38:57.114Z,90.80
2018-01-10T22:41:25.264Z,90.80
2018-01-10T22:43:53.378Z,91.00
2018-01-10T22:46:22.279Z,90.60
2018-01-10T22:48:51.154Z,90.20
2018-01-10T22:51:19.291Z,90.20
2018-01-10T22:53:47.399Z,90.00
2018-01-10T22:56:16.345Z,89.40
2018-01-10T22:58:45.174Z,89.50
2018-01-10T23:01:13.304Z,89.50
2018-01-10T23:03:41.412Z,88.60
2018-01-10T23:06:09.546Z,88.80
2018-01-10T23:08:37.668Z,89.00
2018-01-10T23:11:05.792Z,90.00
2018-01-10T23:13:33.910Z,90.40
2018-01-10T23:16:02.078Z,89.70
2018-01-10T23:18:30.179Z,88.70
2018-01-10T23:20:58.333Z,89.40
2018-01-10T23:23:26.466Z,89.40
2018-01-10T23:25:54.599Z,89.20
2018-01-10T23:28:23.474Z,89.30
2018-01-10T23:30:51.617Z,89.30
2018-01-10T23:33:19.731Z,89.60
2018-01-10T23:35:47.869Z,89.80
2018-01-10T23:38:15.988Z,90.40
2018-01-10T23:40:44.901Z,90.00
2018-01-10T23:43:13.055Z,90.00
2018-01-10T23:45:41.965Z,89.20
2018-01-10T23:48:10.079Z,89.20
2018-01-10T23:50:38.239Z,88.50
2018-01-10T23:53:06.373Z,87.90
2018-01-10T23:55:35.316Z,88.40
2018-01-10T23:58:03.867Z,88.40
